»·PEaware :: ASU2 KSAN-KSNA

ASU2 :: KSAN-KSNA

FLIGHT INFORMATION

Flight Status: Arrived
Operator:
Arizona State University
More flights by this operator :: More flights under this callsign
Pilot: Arizona State University (3812)
Aircraft: BEECH AIRCRAFT SUPER KING AIR COMMUTER
(BE20)
More flights by this aircraft type
Origin: KSAN San Diego Intl-Lindbergh
United States
Destination: KSNA John Wayne-Orange Co
United States
More flights between these airports :: More routes between these airports
Route: +KSAN PEBLE6 SLI KSNA
File this flight plan on PilotEdge
Remarks: Call Sign is Sundevil 2. Request ILS RWY 20R. Will supply our own weather of 300 / 2**
Altitude:
(Current/Filed)
10,000ft
Speed:
(Current/Filed)
240kts
Departed: 19-Jun-17 10:53 AM
Arrived: 19-Jun-17 11:24 AM
Distance/Time
Traveled:
66nm/0:31
Distance/Time
To Go:
Arrived

Flight Plot

Page will automatically refresh every two minutes.


Map Options




Map Legend


Flown Route
Filed Route
Departure Airport
Arrival Airport
Navaid (VOR, NDB)
Fix

Horizontal Profiles

Position Reports

Time Latitude Longitude Heading Altitude Ground
Speed
19-Jun-17 10:41 32.730380 -117.190467 290 19ft 2kts
19-Jun-17 10:42 32.730380 -117.190467 290 19ft 2kts
19-Jun-17 10:43 32.730380 -117.190467 290 19ft 2kts
19-Jun-17 10:44 32.730380 -117.190467 290 19ft 2kts
19-Jun-17 10:45 32.730380 -117.190467 290 19ft 2kts
19-Jun-17 10:46 32.730380 -117.190467 290 19ft 2kts
19-Jun-17 10:47 32.730387 -117.190485 293 19ft 2kts
19-Jun-17 10:48 32.730387 -117.190485 293 19ft 2kts
19-Jun-17 10:49 32.731546 -117.190715 5 19ft 11kts
19-Jun-17 10:50 32.732638 -117.189754 106 19ft 10kts
19-Jun-17 10:51 32.731578 -117.185267 104 19ft 20kts
19-Jun-17 10:52 32.730035 -117.178716 105 19ft 23kts
19-Jun-17 10:53 32.729618 -117.176422 70 19ft 4kts
19-Jun-17 10:54 32.729618 -117.176422 70 19ft 4kts
19-Jun-17 10:55 32.730260 -117.176029 286 19ft 2kts
19-Jun-17 10:56 32.731646 -117.181792 285 19ft 84kts
19-Jun-17 10:57 32.749664 -117.216887 308 2093ft 154kts
19-Jun-17 10:58 32.780959 -117.255435 324 4157ft 157kts
19-Jun-17 10:59 32.819126 -117.285551 308 6065ft 165kts
19-Jun-17 11:00 32.849428 -117.329256 306 7777ft 174kts
19-Jun-17 11:01 32.884678 -117.385802 307 7980ft 234kts
19-Jun-17 11:02 32.927121 -117.449616 306 8037ft 244kts
19-Jun-17 11:03 32.969154 -117.516559 306 7984ft 248kts
19-Jun-17 11:04 33.011076 -117.583363 307 8049ft 246kts
19-Jun-17 11:05 33.054930 -117.648676 309 8012ft 247kts
19-Jun-17 11:06 33.098721 -117.714730 304 7929ft 254kts
19-Jun-17 11:07 33.143641 -117.780771 310 7973ft 255kts
19-Jun-17 11:08 33.196127 -117.839047 339 7924ft 259kts
19-Jun-17 11:09 33.269019 -117.845544 337 7827ft 264kts
19-Jun-17 11:10 33.338048 -117.870420 332 7911ft 260kts
19-Jun-17 11:11 33.404944 -117.903357 2 7854ft 259kts
19-Jun-17 11:12 33.476749 -117.891470 10 8156ft 257kts
19-Jun-17 11:13 33.549563 -117.873862 9 7998ft 260kts
19-Jun-17 11:13 33.609742 -117.858901 11 8056ft 260kts
19-Jun-17 11:14 33.682196 -117.841114 9 8002ft 261kts
19-Jun-17 11:15 33.753973 -117.820672 16 7743ft 260kts
19-Jun-17 11:16 33.808215 -117.766404 54 6212ft 234kts
19-Jun-17 11:17 33.828997 -117.700736 72 5021ft 196kts
19-Jun-17 11:19 33.850753 -117.626616 70 4976ft 194kts
19-Jun-17 11:19 33.886617 -117.618742 299 4929ft 189kts
19-Jun-17 11:20 33.891793 -117.681625 270 4959ft 189kts
19-Jun-17 11:21 33.867448 -117.734819 215 4564ft 183kts
19-Jun-17 11:23 33.818790 -117.772693 210 3847ft 146kts
19-Jun-17 11:23 33.792481 -117.792326 210 2542ft 115kts
19-Jun-17 11:24 33.764877 -117.812405 209 1774ft 110kts
19-Jun-17 11:25 33.734922 -117.830611 205 1269ft 123kts
19-Jun-17 11:26 33.705780 -117.849235 206 575ft 0kts
19-Jun-17 11:27 33.679293 -117.866573 207 60ft 71kts
19-Jun-17 11:28 33.674055 -117.870595 295 60ft 8kts
19-Jun-17 11:29 33.674055 -117.870595 295 60ft 8kts
19-Jun-17 11:30 33.674187 -117.871357 231 60ft 5kts
19-Jun-17 11:31 33.673236 -117.873137 272 60ft 8kts

Navigation Log

Ident Type
1. KSAN Airport
2. SLI Navaid
3. KSNA Airport